sensor_id;sensor_type;location;lat;lon;timestamp;P1;durP1;ratioP1;P2;durP2;ratioP2
50649;SDS011;36621;60.058;30.346;2022-12-05T00:03:31;18.45;;;9.25;;
50649;SDS011;36621;60.058;30.346;2022-12-05T00:11:06;15.68;;;9.18;;
50649;SDS011;36621;60.058;30.346;2022-12-05T00:18:42;16.55;;;8.40;;
50649;SDS011;36621;60.058;30.346;2022-12-05T00:26:16;14.38;;;8.27;;
50649;SDS011;36621;60.058;30.346;2022-12-05T00:33:49;17.77;;;9.45;;
50649;SDS011;36621;60.058;30.346;2022-12-05T00:41:25;14.60;;;9.07;;
50649;SDS011;36621;60.058;30.346;2022-12-05T00:49:04;14.63;;;9.02;;
50649;SDS011;36621;60.058;30.346;2022-12-05T00:56:42;15.98;;;9.23;;
50649;SDS011;36621;60.058;30.346;2022-12-05T01:04:20;16.02;;;8.88;;
50649;SDS011;36621;60.058;30.346;2022-12-05T01:12:01;16.08;;;8.50;;
50649;SDS011;36621;60.058;30.346;2022-12-05T01:19:34;18.30;;;9.25;;
50649;SDS011;36621;60.058;30.346;2022-12-05T01:27:11;16.13;;;9.45;;
50649;SDS011;36621;60.058;30.346;2022-12-05T01:34:55;15.85;;;9.60;;
50649;SDS011;36621;60.058;30.346;2022-12-05T01:42:28;15.82;;;9.05;;
50649;SDS011;36621;60.058;30.346;2022-12-05T01:50:00;16.73;;;9.02;;
50649;SDS011;36621;60.058;30.346;2022-12-05T01:57:37;14.40;;;9.57;;
50649;SDS011;36621;60.058;30.346;2022-12-05T02:05:14;16.13;;;9.30;;
50649;SDS011;36621;60.058;30.346;2022-12-05T02:12:50;16.38;;;9.40;;
50649;SDS011;36621;60.058;30.346;2022-12-05T02:20:35;13.65;;;9.35;;
50649;SDS011;36621;60.058;30.346;2022-12-05T02:28:23;18.00;;;9.05;;
50649;SDS011;36621;60.058;30.346;2022-12-05T02:36:15;14.55;;;8.45;;
50649;SDS011;36621;60.058;30.346;2022-12-05T02:43:54;15.07;;;9.10;;
50649;SDS011;36621;60.058;30.346;2022-12-05T02:51:38;15.70;;;8.32;;
50649;SDS011;36621;60.058;30.346;2022-12-05T02:59:13;16.75;;;9.50;;
50649;SDS011;36621;60.058;30.346;2022-12-05T03:06:51;15.38;;;9.35;;
50649;SDS011;36621;60.058;30.346;2022-12-05T03:14:28;14.63;;;9.10;;
50649;SDS011;36621;60.058;30.346;2022-12-05T03:22:06;13.90;;;9.00;;
50649;SDS011;36621;60.058;30.346;2022-12-05T03:29:42;16.10;;;9.35;;
50649;SDS011;36621;60.058;30.346;2022-12-05T03:45:19;16.02;;;9.57;;
50649;SDS011;36621;60.058;30.346;2022-12-05T03:53:13;18.73;;;10.38;;
50649;SDS011;36621;60.058;30.346;2022-12-05T04:01:38;18.45;;;9.63;;
50649;SDS011;36621;60.058;30.346;2022-12-05T04:19:22;20.73;;;10.93;;
50649;SDS011;36621;60.058;30.346;2022-12-05T04:28:03;17.08;;;9.80;;
50649;SDS011;36621;60.058;30.346;2022-12-05T13:36:25;34.33;;;17.23;;
50649;SDS011;36621;60.058;30.346;2022-12-05T14:55:22;29.63;;;18.42;;
50649;SDS011;36621;60.058;30.346;2022-12-05T15:03:57;35.55;;;20.65;;
50649;SDS011;36621;60.058;30.346;2022-12-05T15:12:11;33.30;;;19.27;;
50649;SDS011;36621;60.058;30.346;2022-12-05T15:19:55;34.47;;;19.92;;
50649;SDS011;36621;60.058;30.346;2022-12-05T15:28:21;31.55;;;18.70;;
50649;SDS011;36621;60.058;30.346;2022-12-05T15:36:35;33.05;;;19.20;;
50649;SDS011;36621;60.058;30.346;2022-12-05T15:45:26;31.75;;;18.42;;
50649;SDS011;36621;60.058;30.346;2022-12-05T16:02:39;30.65;;;17.90;;
50649;SDS011;36621;60.058;30.346;2022-12-05T16:19:56;28.60;;;17.20;;
50649;SDS011;36621;60.058;30.346;2022-12-05T17:05:10;25.67;;;14.45;;
50649;SDS011;36621;60.058;30.346;2022-12-05T18:16:48;23.35;;;13.90;;
50649;SDS011;36621;60.058;30.346;2022-12-05T19:45:15;17.23;;;10.13;;
50649;SDS011;36621;60.058;30.346;2022-12-05T20:39:42;17.27;;;8.95;;
